createdAt,value
2022-07-30T00:01:42.345Z,17.41
2022-07-30T00:04:09.159Z,17.43
2022-07-30T00:06:37.820Z,17.38
2022-07-30T00:09:04.818Z,17.38
2022-07-30T00:11:31.523Z,17.32
2022-07-30T00:13:58.366Z,17.33
2022-07-30T00:16:25.238Z,17.34
2022-07-30T00:18:52.009Z,17.22
2022-07-30T00:21:20.277Z,17.28
2022-07-30T00:24:03.626Z,17.25
2022-07-30T00:26:30.332Z,17.25
2022-07-30T00:28:57.168Z,17.14
2022-07-30T00:31:23.862Z,17.17
2022-07-30T00:33:50.582Z,17.06
2022-07-30T00:36:17.529Z,17.05
2022-07-30T00:38:44.259Z,17.00
2022-07-30T00:41:11.558Z,16.91
2022-07-30T00:43:39.366Z,16.89
2022-07-30T00:46:06.234Z,16.95
2022-07-30T00:48:33.263Z,16.92
2022-07-30T00:51:00.149Z,16.90
2022-07-30T00:53:27.023Z,16.80
2022-07-30T00:55:53.708Z,16.78
2022-07-30T00:58:20.558Z,16.72
2022-07-30T01:00:47.402Z,16.73
2022-07-30T01:03:14.572Z,16.67
2022-07-30T01:05:41.319Z,16.64
2022-07-30T01:08:08.213Z,16.60
2022-07-30T01:10:35.227Z,16.59
2022-07-30T01:13:02.139Z,16.60
2022-07-30T01:15:29.641Z,16.58
2022-07-30T01:18:00.253Z,16.56
2022-07-30T01:20:57.869Z,16.62
2022-07-30T01:23:36.690Z,16.51
2022-07-30T01:26:04.972Z,16.46
2022-07-30T01:28:38.030Z,16.51
2022-07-30T01:31:07.508Z,16.42
2022-07-30T01:33:39.102Z,16.34
2022-07-30T01:36:08.567Z,16.24
2022-07-30T01:38:37.042Z,16.18
2022-07-30T01:41:06.367Z,16.24
2022-07-30T01:43:35.298Z,16.33
2022-07-30T01:46:03.821Z,16.24
2022-07-30T01:48:34.132Z,16.18
2022-07-30T01:51:04.630Z,16.17
2022-07-30T01:53:33.998Z,16.19
2022-07-30T01:56:02.456Z,16.17
2022-07-30T01:58:34.841Z,16.05
2022-07-30T02:01:01.798Z,16.03
2022-07-30T02:03:29.618Z,16.07
2022-07-30T02:06:00.605Z,15.95
2022-07-30T02:08:40.232Z,15.97
2022-07-30T02:11:09.389Z,16.00
2022-07-30T02:13:55.110Z,16.04
2022-07-30T02:16:30.830Z,16.10
2022-07-30T02:19:06.435Z,15.97
2022-07-30T02:21:38.227Z,15.98
2022-07-30T02:24:05.880Z,15.99
2022-07-30T02:26:34.102Z,16.07
2022-07-30T02:29:02.695Z,16.16
2022-07-30T02:31:32.718Z,16.12
2022-07-30T02:34:02.979Z,16.25
2022-07-30T02:36:32.544Z,16.29
2022-07-30T02:39:01.841Z,16.18
2022-07-30T02:41:31.161Z,16.27
2022-07-30T02:43:59.372Z,16.22
2022-07-30T02:46:27.539Z,16.27
2022-07-30T02:48:56.404Z,16.25
2022-07-30T02:51:24.594Z,16.20
2022-07-30T02:53:53.333Z,16.21
2022-07-30T02:56:22.076Z,16.24
2022-07-30T02:58:50.137Z,16.29
2022-07-30T03:01:19.343Z,16.26
2022-07-30T03:03:47.628Z,16.25
2022-07-30T03:06:15.557Z,16.13
2022-07-30T03:08:44.696Z,16.13
2022-07-30T03:11:13.199Z,15.97
2022-07-30T03:13:40.622Z,15.91
2022-07-30T03:16:10.070Z,15.82
2022-07-30T03:18:38.527Z,15.81
2022-07-30T03:21:09.577Z,15.75
2022-07-30T03:23:38.118Z,15.75
2022-07-30T03:26:07.065Z,15.71
2022-07-30T03:28:39.032Z,15.74
2022-07-30T03:31:07.583Z,15.67
2022-07-30T03:33:38.646Z,15.81
2022-07-30T03:36:06.966Z,15.91
2022-07-30T03:38:36.517Z,15.93
2022-07-30T03:41:05.235Z,16.00
2022-07-30T03:43:34.083Z,16.04
2022-07-30T03:46:05.705Z,16.02
2022-07-30T03:48:35.283Z,15.99
2022-07-30T03:51:04.081Z,15.99
2022-07-30T03:53:31.769Z,16.08
2022-07-30T03:55:59.437Z,16.05
2022-07-30T03:58:26.247Z,16.13
2022-07-30T04:00:53.019Z,16.11
2022-07-30T04:03:31.990Z,16.20
2022-07-30T04:05:59.059Z,16.13
2022-07-30T04:08:26.078Z,16.14
2022-07-30T04:10:52.872Z,16.16
2022-07-30T04:13:19.846Z,16.20
2022-07-30T04:16:40.996Z,16.22
2022-07-30T04:19:15.492Z,16.31
2022-07-30T04:21:44.549Z,16.35
2022-07-30T04:24:12.899Z,16.42
2022-07-30T04:26:39.851Z,16.43
2022-07-30T04:29:09.209Z,16.46
2022-07-30T04:31:41.483Z,16.57
2022-07-30T04:34:08.341Z,16.56
2022-07-30T04:36:35.898Z,16.56
2022-07-30T04:39:03.723Z,16.64
2022-07-30T04:41:48.439Z,16.58
2022-07-30T04:44:17.082Z,16.69
2022-07-30T04:46:43.888Z,16.70
2022-07-30T04:49:12.701Z,16.74
2022-07-30T04:51:40.719Z,16.81
2022-07-30T04:54:15.756Z,16.72
2022-07-30T04:56:53.177Z,16.74
2022-07-30T04:59:23.604Z,16.78
2022-07-30T05:01:52.241Z,16.72
2022-07-30T05:04:22.556Z,16.76
2022-07-30T05:06:50.102Z,16.79
2022-07-30T05:09:17.411Z,16.89
2022-07-30T05:11:53.825Z,16.88
2022-07-30T05:14:21.381Z,16.99
2022-07-30T05:16:48.596Z,17.00
2022-07-30T05:19:15.521Z,17.02
2022-07-30T05:21:42.200Z,17.11
2022-07-30T05:24:09.053Z,17.13
2022-07-30T05:26:36.128Z,17.14
2022-07-30T05:29:03.981Z,17.18
2022-07-30T05:31:34.042Z,17.24
2022-07-30T05:34:03.277Z,17.22
2022-07-30T05:36:30.776Z,17.23
2022-07-30T05:38:57.489Z,17.28
2022-07-30T05:41:32.000Z,17.15
2022-07-30T05:43:59.304Z,17.14
2022-07-30T05:46:26.271Z,17.25
2022-07-30T05:48:53.553Z,17.33
2022-07-30T05:51:20.942Z,17.25
2022-07-30T05:53:48.092Z,17.39
2022-07-30T05:56:15.047Z,17.45
2022-07-30T05:58:41.813Z,17.48
2022-07-30T06:01:08.950Z,17.51
2022-07-30T06:03:35.770Z,17.52
2022-07-30T06:06:06.590Z,17.62
2022-07-30T06:08:33.239Z,17.67
2022-07-30T06:11:00.078Z,17.64
2022-07-30T06:13:26.987Z,17.74
2022-07-30T06:15:54.139Z,17.82
2022-07-30T06:18:20.854Z,17.78
2022-07-30T06:20:52.348Z,17.97
2022-07-30T06:23:19.537Z,18.04
2022-07-30T06:25:48.371Z,18.17
2022-07-30T06:28:36.472Z,18.37
2022-07-30T06:31:02.841Z,18.65
2022-07-30T06:33:30.096Z,18.67
2022-07-30T06:35:56.923Z,18.93
2022-07-30T06:38:24.193Z,18.85
2022-07-30T06:40:51.097Z,18.84
2022-07-30T06:43:19.474Z,18.67
2022-07-30T06:45:46.259Z,18.69
2022-07-30T06:48:13.093Z,18.78
2022-07-30T06:50:41.529Z,18.99
2022-07-30T06:53:08.521Z,18.98
2022-07-30T06:55:35.213Z,19.12
2022-07-30T06:58:02.209Z,19.26
2022-07-30T07:00:29.121Z,19.54
2022-07-30T07:02:55.881Z,19.79
2022-07-30T07:05:23.624Z,19.71
2022-07-30T07:07:58.793Z,19.87
2022-07-30T07:10:27.406Z,20.06
2022-07-30T07:12:54.958Z,20.13
2022-07-30T07:15:36.311Z,20.01
2022-07-30T07:18:05.273Z,20.24
2022-07-30T07:20:33.302Z,20.42
2022-07-30T07:23:01.628Z,20.51
2022-07-30T07:25:33.511Z,20.58
2022-07-30T07:28:11.680Z,20.64
2022-07-30T07:30:41.832Z,20.66
2022-07-30T07:33:09.915Z,20.78
2022-07-30T07:35:45.491Z,21.45
2022-07-30T07:38:18.043Z,22.61
2022-07-30T07:40:46.002Z,22.07
2022-07-30T07:43:12.771Z,22.33
2022-07-30T07:45:39.658Z,22.80
2022-07-30T07:48:06.868Z,22.90
2022-07-30T07:50:34.084Z,22.86
2022-07-30T07:53:01.287Z,22.47
2022-07-30T07:55:28.186Z,22.24
2022-07-30T07:57:58.462Z,22.18
2022-07-30T08:00:25.311Z,21.95
2022-07-30T08:02:52.754Z,21.99
2022-07-30T08:05:19.868Z,21.93
2022-07-30T08:07:46.859Z,21.76
2022-07-30T08:10:16.090Z,21.81
2022-07-30T08:12:43.321Z,21.91
2022-07-30T08:15:10.514Z,22.13
2022-07-30T08:17:45.122Z,22.25
2022-07-30T08:20:13.558Z,22.37
2022-07-30T08:22:41.170Z,22.49
2022-07-30T08:25:08.693Z,22.34
2022-07-30T08:27:35.531Z,22.71
2022-07-30T08:30:06.938Z,22.79
2022-07-30T08:32:34.302Z,23.03
2022-07-30T08:35:01.192Z,22.99
2022-07-30T08:37:27.954Z,23.12
2022-07-30T08:39:54.685Z,23.42
2022-07-30T08:42:23.067Z,23.53
2022-07-30T08:44:53.155Z,23.66
2022-07-30T08:47:24.684Z,23.81
2022-07-30T08:49:52.687Z,23.98
2022-07-30T08:52:20.079Z,24.00
2022-07-30T08:54:46.875Z,24.23
2022-07-30T08:57:15.077Z,24.11
2022-07-30T09:00:00.155Z,24.48
2022-07-30T09:02:31.237Z,24.53
2022-07-30T09:04:58.211Z,24.77
2022-07-30T09:07:25.063Z,25.21
2022-07-30T09:09:52.051Z,25.42
2022-07-30T09:12:36.812Z,25.74
2022-07-30T09:15:20.457Z,26.13
2022-07-30T09:17:51.846Z,26.18
2022-07-30T09:20:24.349Z,26.76
2022-07-30T09:23:04.114Z,26.68
2022-07-30T09:25:37.198Z,27.26
2022-07-30T09:28:15.831Z,27.23
2022-07-30T09:30:50.746Z,27.39
2022-07-30T09:33:43.123Z,27.52
2022-07-30T09:36:14.177Z,27.66
2022-07-30T09:38:51.427Z,28.11
2022-07-30T09:41:39.993Z,28.29
2022-07-30T09:44:07.334Z,28.72
2022-07-30T09:46:47.388Z,28.90
2022-07-30T09:49:19.602Z,28.18
2022-07-30T09:51:55.623Z,28.24
2022-07-30T09:54:51.798Z,28.14
2022-07-30T10:00:23.752Z,29.06
2022-07-30T10:02:51.849Z,29.08
2022-07-30T10:05:20.339Z,29.75
2022-07-30T10:07:52.323Z,29.97
2022-07-30T10:10:21.794Z,30.18
2022-07-30T10:12:58.366Z,30.44
2022-07-30T10:15:29.780Z,30.50
2022-07-30T10:17:57.633Z,30.38
2022-07-30T10:20:25.867Z,30.50
2022-07-30T10:22:53.262Z,30.96
2022-07-30T10:25:23.095Z,31.04
2022-07-30T10:27:57.157Z,31.22
2022-07-30T10:30:27.802Z,31.37
2022-07-30T10:32:57.010Z,31.51
2022-07-30T10:35:35.026Z,31.37
2022-07-30T10:38:13.751Z,31.28
2022-07-30T10:41:11.550Z,31.16
2022-07-30T10:43:44.692Z,31.21
2022-07-30T10:46:27.103Z,31.54
2022-07-30T10:48:55.630Z,31.61
2022-07-30T10:51:52.403Z,31.61
2022-07-30T10:54:36.570Z,31.74
2022-07-30T10:57:09.532Z,31.41
2022-07-30T11:00:00.507Z,31.72
2022-07-30T11:02:32.748Z,31.66
2022-07-30T11:05:18.621Z,31.68
2022-07-30T11:07:54.682Z,31.82
2022-07-30T11:10:36.349Z,31.94
2022-07-30T11:13:04.114Z,31.95
2022-07-30T11:15:53.825Z,31.95
2022-07-30T11:18:21.116Z,31.33
2022-07-30T11:21:21.568Z,31.35
2022-07-30T11:23:54.861Z,31.36
2022-07-30T11:26:50.848Z,32.08
2022-07-30T11:29:50.805Z,31.16
2022-07-30T11:32:29.961Z,31.04
2022-07-30T11:35:17.369Z,31.57
2022-07-30T11:38:09.463Z,31.39
2022-07-30T11:40:37.637Z,31.20
2022-07-30T11:43:36.911Z,30.92
2022-07-30T11:46:10.783Z,31.12
2022-07-30T11:48:44.766Z,30.48
2022-07-30T11:51:11.584Z,31.34
2022-07-30T11:53:38.447Z,31.67
2022-07-30T11:56:05.920Z,31.78
2022-07-30T11:58:33.844Z,30.97
2022-07-30T12:01:09.237Z,31.84
2022-07-30T12:03:40.747Z,32.16
2022-07-30T12:06:13.841Z,31.95
2022-07-30T12:08:45.345Z,31.98
2022-07-30T12:11:12.609Z,31.51
2022-07-30T12:13:45.533Z,32.31
2022-07-30T12:16:16.793Z,32.08
2022-07-30T12:18:44.241Z,32.22
2022-07-30T12:21:17.690Z,32.73
2022-07-30T12:23:54.427Z,32.43
2022-07-30T12:26:22.473Z,31.72
2022-07-30T12:28:49.550Z,32.09
2022-07-30T12:31:16.852Z,32.29
2022-07-30T12:33:43.757Z,31.86
2022-07-30T12:36:23.099Z,31.81
2022-07-30T12:38:52.466Z,31.71
2022-07-30T12:41:19.243Z,32.15
2022-07-30T12:43:54.471Z,31.35
2022-07-30T12:46:23.639Z,31.05
2022-07-30T12:48:51.451Z,31.84
2022-07-30T12:51:18.352Z,32.11
2022-07-30T12:53:45.915Z,30.99
2022-07-30T12:56:15.825Z,32.18
2022-07-30T12:58:43.318Z,32.43
2022-07-30T13:01:13.484Z,32.12
2022-07-30T13:03:41.183Z,32.12
2022-07-30T13:06:23.687Z,32.25
2022-07-30T13:08:53.968Z,32.52
2022-07-30T13:11:23.980Z,32.50
2022-07-30T13:13:51.864Z,32.67
2022-07-30T13:16:20.520Z,33.00
2022-07-30T13:18:48.250Z,32.88
2022-07-30T13:21:15.006Z,32.26
2022-07-30T13:23:42.415Z,32.15
2022-07-30T13:26:10.170Z,32.77
2022-07-30T13:28:37.210Z,33.55
2022-07-30T13:31:05.215Z,33.11
2022-07-30T13:33:31.928Z,33.30
2022-07-30T13:35:59.217Z,33.40
2022-07-30T13:38:26.359Z,32.97
2022-07-30T13:40:53.338Z,33.44
2022-07-30T13:43:21.234Z,33.40
2022-07-30T13:45:48.723Z,33.73
2022-07-30T13:48:15.852Z,33.12
2022-07-30T13:50:43.570Z,33.13
2022-07-30T13:53:10.841Z,33.20
2022-07-30T13:55:39.321Z,33.17
2022-07-30T13:58:07.189Z,33.40
2022-07-30T14:00:36.606Z,33.18
2022-07-30T14:03:05.619Z,33.70
2022-07-30T14:05:36.084Z,33.42
2022-07-30T14:08:10.702Z,33.33
2022-07-30T14:10:38.807Z,33.51
2022-07-30T14:13:07.120Z,32.94
2022-07-30T14:15:34.175Z,32.90
2022-07-30T14:18:01.224Z,32.12
2022-07-30T14:20:29.076Z,31.25
2022-07-30T14:22:56.779Z,30.11
2022-07-30T14:25:24.083Z,30.60
2022-07-30T14:27:50.995Z,31.15
2022-07-30T14:30:18.186Z,31.50
2022-07-30T14:32:45.241Z,31.60
2022-07-30T14:35:12.113Z,31.92
2022-07-30T14:37:39.402Z,32.26
2022-07-30T14:40:10.001Z,32.10
2022-07-30T14:42:36.953Z,31.96
2022-07-30T14:45:04.954Z,32.32
2022-07-30T14:47:31.809Z,32.39
2022-07-30T14:49:58.964Z,31.95
2022-07-30T14:52:25.983Z,32.38
2022-07-30T14:54:53.244Z,32.47
2022-07-30T14:57:20.431Z,32.52
2022-07-30T14:59:47.265Z,32.20
2022-07-30T15:02:14.123Z,32.43
2022-07-30T15:04:40.952Z,32.53
2022-07-30T15:07:07.691Z,31.86
2022-07-30T15:09:34.418Z,32.11
2022-07-30T15:12:23.687Z,32.56
2022-07-30T15:14:50.148Z,31.90
2022-07-30T15:17:19.108Z,32.30
2022-07-30T15:19:49.924Z,32.19
2022-07-30T15:22:19.032Z,31.90
2022-07-30T15:24:45.853Z,32.54
2022-07-30T15:27:12.639Z,31.96
2022-07-30T15:29:39.527Z,31.59
2022-07-30T15:32:07.379Z,31.71
2022-07-30T15:34:34.946Z,31.80
2022-07-30T15:37:02.625Z,31.58
2022-07-30T15:39:32.394Z,31.37
2022-07-30T15:42:00.653Z,31.55
2022-07-30T15:44:27.949Z,31.15
2022-07-30T15:46:55.052Z,30.80
2022-07-30T15:49:22.171Z,31.13
2022-07-30T15:51:49.075Z,30.99
2022-07-30T15:54:22.187Z,31.20
2022-07-30T15:56:51.160Z,30.59
2022-07-30T15:59:18.521Z,31.34
2022-07-30T16:01:45.450Z,31.10
2022-07-30T16:04:19.001Z,31.16
2022-07-30T16:06:48.004Z,31.52
2022-07-30T16:09:16.213Z,30.67
2022-07-30T16:11:43.151Z,30.38
2022-07-30T16:14:10.458Z,29.95
2022-07-30T16:16:37.262Z,30.40
2022-07-30T16:19:04.465Z,30.32
2022-07-30T16:21:31.450Z,29.89
2022-07-30T16:23:59.027Z,29.08
2022-07-30T16:26:25.811Z,28.71
2022-07-30T16:28:53.127Z,28.54
2022-07-30T16:31:19.962Z,28.10
2022-07-30T16:33:47.317Z,27.83
2022-07-30T16:36:14.377Z,28.04
2022-07-30T16:38:41.411Z,27.51
2022-07-30T16:41:13.213Z,27.29
2022-07-30T16:43:42.935Z,27.00
2022-07-30T16:46:10.963Z,27.25
2022-07-30T16:48:37.787Z,27.16
2022-07-30T16:51:06.364Z,27.14
2022-07-30T16:53:33.156Z,26.79
2022-07-30T16:55:59.879Z,26.80
2022-07-30T16:58:28.458Z,26.40
2022-07-30T17:00:58.155Z,26.52
2022-07-30T17:03:25.493Z,26.02
2022-07-30T17:05:52.898Z,26.04
2022-07-30T17:08:24.986Z,26.17
2022-07-30T17:10:53.436Z,25.92
2022-07-30T17:13:20.804Z,25.93
2022-07-30T17:15:48.514Z,25.89
2022-07-30T17:18:16.638Z,25.83
2022-07-30T17:20:44.353Z,25.77
2022-07-30T17:23:12.206Z,25.66
2022-07-30T17:25:39.178Z,25.47
2022-07-30T17:28:05.881Z,25.65
2022-07-30T17:30:33.559Z,25.69
2022-07-30T17:33:00.418Z,25.50
2022-07-30T17:35:41.749Z,25.52
2022-07-30T17:38:08.440Z,25.38
2022-07-30T17:40:35.276Z,25.22
2022-07-30T17:43:05.593Z,25.21
2022-07-30T17:45:35.873Z,24.92
2022-07-30T17:48:03.677Z,24.86
2022-07-30T17:50:32.443Z,24.87
2022-07-30T17:52:59.817Z,24.75
2022-07-30T17:55:28.123Z,24.72
2022-07-30T17:57:54.967Z,24.66
2022-07-30T18:00:22.794Z,24.59
2022-07-30T18:02:49.518Z,24.45
2022-07-30T18:05:16.397Z,24.42
2022-07-30T18:07:43.882Z,24.29
2022-07-30T18:10:11.557Z,24.09
2022-07-30T18:12:38.699Z,24.10
2022-07-30T18:15:06.525Z,24.17
2022-07-30T18:17:33.381Z,24.05
2022-07-30T18:20:00.401Z,23.87
2022-07-30T18:22:29.694Z,23.77
2022-07-30T18:25:01.347Z,23.83
2022-07-30T18:27:29.903Z,23.72
2022-07-30T18:29:58.220Z,23.69
2022-07-30T18:32:25.398Z,23.66
2022-07-30T18:34:52.280Z,23.57
2022-07-30T18:37:19.102Z,23.52
2022-07-30T18:39:45.849Z,23.42
2022-07-30T18:42:12.591Z,23.41
2022-07-30T18:44:39.453Z,23.39
2022-07-30T18:47:06.425Z,23.23
2022-07-30T18:49:37.729Z,23.10
2022-07-30T18:52:07.042Z,23.13
2022-07-30T18:54:34.497Z,22.94
2022-07-30T18:57:01.344Z,22.96
2022-07-30T18:59:28.165Z,22.77
2022-07-30T19:01:55.285Z,22.88
2022-07-30T19:04:22.139Z,22.77
2022-07-30T19:06:49.024Z,22.69
2022-07-30T19:09:17.860Z,22.66
2022-07-30T19:11:46.317Z,22.63
2022-07-30T19:14:14.580Z,22.57
2022-07-30T19:16:42.399Z,22.46
2022-07-30T19:19:10.364Z,22.35
2022-07-30T19:21:37.113Z,22.29
2022-07-30T19:24:05.184Z,22.17
2022-07-30T19:26:32.156Z,22.04
2022-07-30T19:28:59.308Z,21.87
2022-07-30T19:31:26.673Z,21.92
2022-07-30T19:33:53.451Z,21.85
2022-07-30T19:36:22.997Z,21.77
2022-07-30T19:38:50.091Z,21.63
2022-07-30T19:41:17.098Z,21.63
2022-07-30T19:43:57.678Z,21.61
2022-07-30T19:46:25.366Z,21.39
2022-07-30T19:48:52.332Z,21.37
2022-07-30T19:51:20.957Z,21.36
2022-07-30T19:53:48.087Z,21.29
2022-07-30T19:56:14.935Z,21.23
2022-07-30T19:58:41.767Z,21.25
2022-07-30T20:01:10.142Z,21.02
2022-07-30T20:03:39.040Z,21.04
2022-07-30T20:06:07.719Z,20.99
2022-07-30T20:08:35.698Z,20.86
2022-07-30T20:11:05.897Z,20.86
2022-07-30T20:13:44.609Z,20.89
2022-07-30T20:16:17.433Z,20.65
2022-07-30T20:18:46.228Z,20.64
2022-07-30T20:21:16.062Z,20.54
2022-07-30T20:23:44.993Z,20.57
2022-07-30T20:26:14.241Z,20.58
2022-07-30T20:28:52.595Z,20.54
2022-07-30T20:31:37.218Z,20.43
2022-07-30T20:34:05.347Z,20.33
2022-07-30T20:36:43.476Z,20.21
2022-07-30T20:39:13.386Z,20.09
2022-07-30T20:41:45.523Z,20.12
2022-07-30T20:44:23.073Z,20.05
2022-07-30T20:47:01.448Z,19.89
2022-07-30T20:49:36.751Z,19.83
2022-07-30T20:52:05.510Z,19.81
2022-07-30T20:54:33.672Z,19.71
2022-07-30T20:57:01.171Z,19.65
2022-07-30T20:59:28.951Z,19.57
2022-07-30T21:01:55.861Z,19.66
2022-07-30T21:04:25.308Z,19.56
2022-07-30T21:06:52.814Z,19.43
2022-07-30T21:09:20.665Z,19.52
2022-07-30T21:11:50.587Z,19.38
2022-07-30T21:14:20.075Z,19.33
2022-07-30T21:16:47.931Z,19.35
2022-07-30T21:19:16.974Z,19.35
2022-07-30T21:21:48.111Z,19.35
2022-07-30T21:24:18.693Z,19.27
2022-07-30T21:26:48.779Z,19.13
2022-07-30T21:29:16.678Z,19.01
2022-07-30T21:32:01.083Z,19.05
2022-07-30T21:34:35.960Z,18.87
2022-07-30T21:37:10.410Z,18.99
2022-07-30T21:39:41.456Z,19.01
2022-07-30T21:42:09.259Z,18.78
2022-07-30T21:44:37.547Z,18.74
2022-07-30T21:47:10.389Z,18.92
2022-07-30T21:49:38.690Z,18.83
2022-07-30T21:52:07.296Z,18.80
2022-07-30T21:54:45.004Z,18.57
2022-07-30T21:57:12.592Z,18.68
2022-07-30T21:59:41.198Z,18.53
2022-07-30T22:02:16.020Z,18.40
2022-07-30T22:04:47.635Z,18.29
2022-07-30T22:07:17.801Z,18.33
2022-07-30T22:09:45.376Z,18.41
2022-07-30T22:12:13.032Z,18.40
2022-07-30T22:14:46.919Z,18.38
2022-07-30T22:17:23.365Z,18.42
2022-07-30T22:19:51.434Z,18.36
2022-07-30T22:25:06.741Z,18.11
2022-07-30T22:27:56.444Z,18.19
2022-07-30T22:30:26.572Z,18.08
2022-07-30T22:32:54.646Z,18.03
2022-07-30T22:35:32.256Z,17.94
2022-07-30T22:38:01.875Z,17.87
2022-07-30T22:40:28.857Z,17.79
2022-07-30T22:42:55.678Z,17.61
2022-07-30T22:45:44.985Z,17.58
2022-07-30T22:48:09.952Z,17.58
2022-07-30T22:50:39.991Z,17.51
2022-07-30T22:53:56.943Z,17.48
2022-07-30T22:55:54.925Z,17.51
2022-07-30T22:58:26.091Z,17.44
2022-07-30T23:00:53.931Z,17.39
2022-07-30T23:03:21.228Z,17.24
2022-07-30T23:05:56.617Z,17.21
2022-07-30T23:08:30.007Z,17.19
2022-07-30T23:10:59.451Z,17.04
2022-07-30T23:12:28.646Z,18.04
2022-07-30T23:13:27.202Z,16.94
2022-07-30T23:15:54.003Z,17.02
2022-07-30T23:18:20.769Z,16.94
2022-07-30T23:20:47.519Z,17.01
2022-07-30T23:23:15.027Z,16.89
2022-07-30T23:25:41.837Z,16.84
2022-07-30T23:28:08.732Z,16.80
2022-07-30T23:30:35.831Z,16.70
2022-07-30T23:33:02.665Z,16.70
2022-07-30T23:35:29.392Z,16.61
2022-07-30T23:37:56.089Z,16.59
2022-07-30T23:40:23.386Z,16.59
2022-07-30T23:42:50.938Z,16.65
2022-07-30T23:45:18.797Z,16.64
2022-07-30T23:48:01.023Z,16.59
2022-07-30T23:50:31.003Z,16.57
2022-07-30T23:52:57.778Z,16.56
2022-07-30T23:55:24.649Z,16.41
2022-07-30T23:57:51.602Z,16.49
